Terminal Aerodrome Forecast
Issued by NWS

Home | Current Version | Previous Version | Text Only | Print | Product List | Glossary On
Versions: 1 2 3 4 5 6 7 8 9 10 11 12 13 14 15 16 17
000
FTAK31 PAJN 210500 RRA
TAFAGY
TAF
PAGY 210542Z 2106/2206 03006KT P6SM FEW150
     FM211600 VRB04KT P6SM FEW030 BKN080
     FM211900 21008KT P6SM FEW040 SCT080
     FM220200 VRB03KT P6SM SCT040 BKN080
      AMD LTD TO CLD VIS AND WIND=

USA.gov is the U.S. government's official web portal to all federal, state and local government web resources and services.